createdAt,value
2017-08-01T00:00:34.106Z,11.90
2017-08-01T00:03:02.566Z,8.20
2017-08-01T00:05:30.156Z,14.57
2017-08-01T00:07:58.197Z,14.63
2017-08-01T00:10:25.794Z,19.17
2017-08-01T00:12:53.397Z,17.97
2017-08-01T00:15:21.280Z,9.20
2017-08-01T00:17:50.304Z,12.53
2017-08-01T00:20:18.271Z,7.23
2017-08-01T00:22:46.579Z,8.87
2017-08-01T00:25:14.144Z,10.70
2017-08-01T00:27:42.936Z,14.13
2017-08-01T00:30:16.708Z,16.70
2017-08-01T00:32:45.359Z,12.63
2017-08-01T00:35:12.942Z,9.17
2017-08-01T00:37:40.519Z,23.13
2017-08-01T00:40:08.294Z,13.43
2017-08-01T00:42:35.906Z,15.13
2017-08-01T00:45:03.906Z,16.20
2017-08-01T00:47:31.465Z,13.80
2017-08-01T00:49:59.052Z,16.33
2017-08-01T00:52:26.649Z,17.10
2017-08-01T00:54:54.260Z,8.07
2017-08-01T01:00:08.371Z,17.37
2017-08-01T01:05:13.179Z,12.67
2017-08-01T01:07:41.469Z,13.10
2017-08-01T01:10:09.176Z,13.00
2017-08-01T01:12:42.731Z,12.43
2017-08-01T01:15:11.191Z,14.97
2017-08-01T01:17:38.759Z,16.23
2017-08-01T01:20:07.531Z,14.40
2017-08-01T01:22:35.081Z,13.70
2017-08-01T01:25:03.417Z,11.73
2017-08-01T01:27:31.039Z,11.57
2017-08-01T01:29:58.688Z,12.10
2017-08-01T01:32:26.566Z,15.10
2017-08-01T01:34:54.218Z,11.97
2017-08-01T01:37:21.818Z,16.90
2017-08-01T01:39:49.432Z,16.70
2017-08-01T01:42:17.029Z,14.13
2017-08-01T01:44:45.025Z,14.40
2017-08-01T01:47:12.618Z,11.37
2017-08-01T01:49:40.253Z,10.60
2017-08-01T01:52:07.979Z,12.33
2017-08-01T01:54:35.562Z,12.77
2017-08-01T01:57:03.421Z,15.50
2017-08-01T01:59:31.010Z,13.93
2017-08-01T02:01:59.375Z,8.47
2017-08-01T02:04:26.987Z,12.20
2017-08-01T02:06:54.578Z,13.10
2017-08-01T02:09:22.674Z,11.10
2017-08-01T02:11:50.272Z,13.90
2017-08-01T02:14:17.992Z,17.53
2017-08-01T02:16:45.605Z,25.63
2017-08-01T02:19:13.161Z,8.80
2017-08-01T02:21:41.218Z,21.77
2017-08-01T02:24:08.771Z,13.20
2017-08-01T02:26:36.343Z,17.47
2017-08-01T02:29:03.987Z,13.70
2017-08-01T02:31:32.336Z,11.10
2017-08-01T02:34:00.271Z,11.50
2017-08-01T02:36:27.848Z,11.33
2017-08-01T02:38:55.416Z,11.07
2017-08-01T02:41:23.032Z,7.80
2017-08-01T02:43:50.654Z,23.67
2017-08-01T02:46:18.617Z,15.53
2017-08-01T02:48:46.181Z,13.20
2017-08-01T02:51:13.748Z,10.70
2017-08-01T02:53:41.404Z,11.83
2017-08-01T02:56:08.979Z,21.47
2017-08-01T02:58:36.977Z,13.03
2017-08-01T03:01:04.546Z,12.80
2017-08-01T03:03:32.299Z,16.00
2017-08-01T03:06:00.075Z,15.27
2017-08-01T03:08:27.682Z,16.20
2017-08-01T03:10:55.661Z,22.20
2017-08-01T03:13:23.238Z,12.07
2017-08-01T03:15:50.789Z,12.70
2017-08-01T03:18:19.235Z,8.60
2017-08-01T03:20:46.809Z,27.43
2017-08-01T03:23:14.784Z,14.97
2017-08-01T03:25:42.334Z,15.07
2017-08-01T03:28:09.923Z,15.23
2017-08-01T03:30:38.347Z,24.67
2017-08-01T03:33:05.980Z,12.73
2017-08-01T03:35:33.987Z,13.77
2017-08-01T03:38:01.595Z,13.80
2017-08-01T03:40:29.939Z,20.57
2017-08-01T03:42:57.559Z,17.10
2017-08-01T03:45:25.136Z,10.27
2017-08-01T03:47:53.015Z,28.37
2017-08-01T03:50:20.579Z,13.17
2017-08-01T03:52:48.131Z,14.37
2017-08-01T03:55:15.727Z,12.73
2017-08-01T03:57:43.346Z,10.07
2017-08-01T04:00:11.352Z,14.80
2017-08-01T04:02:38.916Z,17.87
2017-08-01T04:05:06.505Z,15.30
2017-08-01T04:07:34.134Z,17.70
2017-08-01T04:10:01.747Z,10.10
2017-08-01T04:12:29.658Z,20.20
2017-08-01T04:14:57.224Z,14.20
2017-08-01T04:17:24.783Z,15.53
2017-08-01T04:19:52.587Z,16.90
2017-08-01T04:22:20.177Z,21.33
2017-08-01T04:24:48.205Z,15.70
2017-08-01T04:27:15.879Z,15.03
2017-08-01T04:29:43.451Z,26.50
2017-08-01T04:32:11.065Z,20.90
2017-08-01T04:34:38.644Z,12.60
2017-08-01T04:37:07.316Z,11.83
2017-08-01T04:39:35.709Z,13.70
2017-08-01T04:42:03.283Z,17.30
2017-08-01T04:44:42.653Z,18.20
2017-08-01T04:47:10.215Z,15.77
2017-08-01T04:49:38.130Z,10.33
2017-08-01T04:52:06.478Z,13.10
2017-08-01T04:54:34.040Z,8.77
2017-08-01T04:57:01.665Z,21.50
2017-08-01T04:59:29.224Z,13.30
2017-08-01T05:01:57.252Z,35.17
2017-08-01T05:04:26.110Z,51.75
2017-08-01T05:06:53.713Z,28.00
2017-08-01T05:09:21.346Z,24.73
2017-08-01T05:11:48.934Z,37.67
2017-08-01T05:14:17.022Z,16.83
2017-08-01T05:16:44.583Z,23.70
2017-08-01T05:19:12.180Z,16.00
2017-08-01T05:21:39.879Z,8.50
2017-08-01T05:24:07.518Z,13.60
2017-08-01T05:26:35.388Z,19.50
2017-08-01T05:29:02.965Z,21.53
2017-08-01T05:31:30.545Z,17.20
2017-08-01T05:33:58.260Z,12.60
2017-08-01T05:36:25.862Z,11.30
2017-08-01T05:38:53.839Z,7.30
2017-08-01T05:41:21.445Z,14.23
2017-08-01T05:43:49.025Z,11.33
2017-08-01T05:46:16.635Z,9.83
2017-08-01T05:48:44.196Z,12.47
2017-08-01T05:51:12.100Z,19.67
2017-08-01T05:53:39.697Z,13.10
2017-08-01T05:56:07.306Z,10.23
2017-08-01T05:58:34.908Z,9.70
2017-08-01T06:01:03.249Z,8.37
2017-08-01T06:03:31.130Z,6.00
2017-08-01T06:05:58.796Z,13.30
2017-08-01T06:08:26.380Z,6.93
2017-08-01T06:10:54.753Z,8.03
2017-08-01T06:13:22.323Z,6.60
2017-08-01T06:15:50.978Z,9.23
2017-08-01T06:18:18.583Z,8.83
2017-08-01T06:20:46.161Z,6.50
2017-08-01T06:23:13.759Z,9.90
2017-08-01T06:25:41.333Z,8.00
2017-08-01T06:28:09.507Z,5.70
2017-08-01T06:30:37.857Z,12.23
2017-08-01T06:33:05.420Z,8.93
2017-08-01T06:35:33.050Z,4.83
2017-08-01T06:38:00.632Z,7.80
2017-08-01T06:40:28.657Z,4.50
2017-08-01T06:42:57.009Z,10.57
2017-08-01T06:45:24.598Z,9.53
2017-08-01T06:47:52.183Z,7.13
2017-08-01T06:50:19.742Z,5.30
2017-08-01T06:52:47.607Z,6.70
2017-08-01T06:55:15.179Z,4.00
2017-08-01T06:57:42.805Z,7.30
2017-08-01T07:00:10.430Z,5.27
2017-08-01T07:02:38.037Z,5.13
2017-08-01T07:05:06.047Z,11.43
2017-08-01T07:07:33.764Z,5.70
2017-08-01T07:10:02.030Z,5.80
2017-08-01T07:12:29.669Z,8.67
2017-08-01T07:14:57.255Z,5.30
2017-08-01T07:17:25.241Z,6.73
2017-08-01T07:19:52.798Z,7.80
2017-08-01T07:22:20.366Z,8.57
2017-08-01T07:24:47.988Z,10.17
2017-08-01T07:27:16.346Z,7.50
2017-08-01T07:29:44.304Z,17.13
2017-08-01T07:32:11.881Z,9.50
2017-08-01T07:34:39.438Z,7.07
2017-08-01T07:37:07.041Z,7.83
2017-08-01T07:39:34.616Z,12.30
2017-08-01T07:42:02.579Z,10.00
2017-08-01T07:44:30.147Z,10.10
2017-08-01T07:46:57.704Z,7.00
2017-08-01T07:49:25.324Z,9.50
2017-08-01T07:51:53.665Z,11.60
2017-08-01T07:54:21.580Z,8.70
2017-08-01T07:56:49.180Z,12.80
2017-08-01T07:59:16.735Z,11.13
2017-08-01T08:01:44.399Z,8.03
2017-08-01T08:04:12.000Z,6.10
2017-08-01T08:06:39.958Z,13.33
2017-08-01T08:09:07.567Z,13.70
2017-08-01T08:11:35.133Z,6.87
2017-08-01T08:14:02.731Z,5.67
2017-08-01T08:16:30.284Z,9.90
2017-08-01T08:18:58.274Z,8.00
2017-08-01T08:21:25.870Z,10.97
2017-08-01T08:23:53.457Z,11.40
2017-08-01T08:26:21.076Z,11.37
2017-08-01T08:28:49.415Z,12.47
2017-08-01T08:31:17.391Z,11.93
2017-08-01T08:33:45.001Z,14.03
2017-08-01T08:36:12.542Z,13.83
2017-08-01T08:38:40.908Z,10.87
2017-08-01T08:41:08.499Z,17.27
2017-08-01T08:43:36.354Z,11.97
2017-08-01T08:46:04.762Z,16.87
2017-08-01T08:48:32.337Z,9.20
2017-08-01T08:51:00.010Z,9.17
2017-08-01T08:53:27.587Z,13.10
2017-08-01T08:55:55.472Z,7.23
2017-08-01T08:58:23.811Z,16.13
2017-08-01T09:00:51.381Z,21.80
2017-08-01T09:03:18.990Z,9.23
2017-08-01T09:05:46.591Z,21.23
2017-08-01T09:08:14.505Z,11.60
2017-08-01T09:10:42.056Z,18.43
2017-08-01T09:13:10.395Z,15.33
2017-08-01T09:15:38.046Z,17.93
2017-08-01T09:18:05.608Z,11.57
2017-08-01T09:20:33.815Z,9.47
2017-08-01T09:23:01.388Z,12.60
2017-08-01T09:25:29.719Z,10.13
2017-08-01T09:27:57.315Z,14.57
2017-08-01T09:30:24.879Z,10.57
2017-08-01T09:32:52.849Z,12.97
2017-08-01T09:35:21.202Z,14.27
2017-08-01T09:37:48.774Z,12.10
2017-08-01T09:40:16.467Z,12.20
2017-08-01T09:42:44.069Z,15.73
2017-08-01T09:45:12.170Z,15.90
2017-08-01T09:47:40.007Z,12.87
2017-08-01T09:50:07.625Z,16.60
2017-08-01T09:52:35.227Z,15.83
2017-08-01T09:55:02.882Z,14.17
2017-08-01T09:57:30.879Z,12.03
2017-08-01T09:59:58.449Z,12.77
2017-08-01T10:02:26.028Z,14.00
2017-08-01T10:04:54.501Z,10.97
2017-08-01T10:07:22.128Z,11.00
2017-08-01T10:09:50.082Z,10.07
2017-08-01T10:12:17.661Z,15.43
2017-08-01T10:14:45.224Z,9.50
2017-08-01T10:17:12.817Z,14.60
2017-08-01T10:19:40.386Z,12.37
2017-08-01T10:22:08.307Z,16.73
2017-08-01T10:24:35.880Z,12.20
2017-08-01T10:27:04.288Z,12.97
2017-08-01T10:29:32.708Z,10.47
2017-08-01T10:32:00.372Z,9.70
2017-08-01T10:34:28.497Z,11.90
2017-08-01T10:36:56.825Z,23.53
2017-08-01T10:39:24.397Z,14.63
2017-08-01T10:41:51.981Z,16.03
2017-08-01T10:44:19.551Z,10.90
2017-08-01T10:46:48.220Z,17.47
2017-08-01T10:49:15.827Z,12.60
2017-08-01T10:51:43.381Z,11.73
2017-08-01T10:54:11.795Z,11.33
2017-08-01T10:56:39.404Z,13.90
2017-08-01T10:59:07.331Z,13.90
2017-08-01T11:01:34.910Z,13.43
2017-08-01T11:04:02.501Z,15.60
2017-08-01T11:06:30.855Z,9.10
2017-08-01T11:08:58.412Z,15.20
2017-08-01T11:11:26.267Z,8.17
2017-08-01T11:13:53.840Z,13.27
2017-08-01T11:16:21.415Z,15.30
2017-08-01T11:18:49.781Z,13.30
2017-08-01T11:21:17.348Z,14.97
2017-08-01T11:23:45.391Z,13.40
2017-08-01T11:26:13.108Z,17.37
2017-08-01T11:28:40.663Z,8.30
2017-08-01T11:31:08.260Z,15.60
2017-08-01T11:33:35.830Z,12.03
2017-08-01T11:36:03.722Z,18.13
2017-08-01T11:38:31.303Z,11.70
2017-08-01T11:40:58.856Z,14.00
2017-08-01T11:43:27.283Z,8.67
2017-08-01T11:45:54.876Z,16.13
2017-08-01T11:48:22.839Z,18.67
2017-08-01T11:50:50.419Z,15.07
2017-08-01T11:53:18.004Z,13.03
2017-08-01T11:55:45.613Z,26.40
2017-08-01T11:58:13.164Z,17.30
2017-08-01T12:00:41.086Z,10.30
2017-08-01T12:03:08.677Z,8.60
2017-08-01T12:05:36.257Z,13.13
2017-08-01T12:08:03.911Z,15.00
2017-08-01T12:10:31.519Z,8.23
2017-08-01T12:12:59.458Z,19.40
2017-08-01T12:15:27.115Z,25.20
2017-08-01T12:17:54.735Z,11.83
2017-08-01T12:20:22.411Z,15.97
2017-08-01T12:22:50.066Z,11.93
2017-08-01T12:25:18.072Z,15.03
2017-08-01T12:27:45.606Z,8.27
2017-08-01T12:30:13.214Z,12.37
2017-08-01T12:32:40.827Z,12.13
2017-08-01T12:35:08.415Z,9.07
2017-08-01T12:37:36.712Z,9.40
2017-08-01T12:40:05.047Z,14.57
2017-08-01T12:42:32.615Z,13.50
2017-08-01T12:45:00.384Z,15.57
2017-08-01T12:47:27.994Z,12.00
2017-08-01T12:49:56.116Z,16.73
2017-08-01T12:52:23.696Z,13.87
2017-08-01T12:54:51.282Z,10.80
2017-08-01T12:57:18.890Z,10.10
2017-08-01T12:59:46.463Z,13.40
2017-08-01T13:02:14.443Z,13.27
2017-08-01T13:04:42.038Z,13.30
2017-08-01T13:07:09.644Z,14.43
2017-08-01T13:09:37.285Z,10.47
2017-08-01T13:12:04.841Z,13.00
2017-08-01T13:14:32.746Z,10.80
2017-08-01T13:17:00.368Z,9.53
2017-08-01T13:19:28.013Z,9.30
2017-08-01T13:21:55.671Z,10.93
2017-08-01T13:24:23.238Z,9.90
2017-08-01T13:26:51.110Z,9.43
2017-08-01T13:29:18.694Z,21.30
2017-08-01T13:31:46.264Z,11.47
2017-08-01T13:34:13.973Z,7.33
2017-08-01T13:36:41.671Z,13.50
2017-08-01T13:39:09.570Z,10.47
2017-08-01T13:41:37.156Z,13.50
2017-08-01T13:44:04.771Z,9.60
2017-08-01T13:46:32.361Z,11.50
2017-08-01T13:48:59.937Z,14.50
2017-08-01T13:51:27.941Z,11.13
2017-08-01T13:53:55.534Z,10.77
2017-08-01T13:56:23.150Z,7.27
2017-08-01T13:58:50.727Z,6.63
2017-08-01T14:01:18.328Z,12.23
2017-08-01T14:03:46.178Z,11.03
2017-08-01T14:06:13.776Z,7.93
2017-08-01T14:08:41.364Z,8.77
2017-08-01T14:11:09.115Z,10.10
2017-08-01T14:13:36.822Z,24.83
2017-08-01T14:16:05.005Z,10.40
2017-08-01T14:18:32.727Z,6.33
2017-08-01T14:21:00.418Z,13.73
2017-08-01T14:23:28.046Z,7.83
2017-08-01T14:25:55.637Z,10.03
2017-08-01T14:28:23.655Z,9.00
2017-08-01T14:30:51.970Z,13.83
2017-08-01T14:33:19.548Z,12.67
2017-08-01T14:35:47.155Z,10.60
2017-08-01T14:38:15.517Z,15.73
2017-08-01T14:40:43.487Z,6.30
2017-08-01T14:43:11.139Z,6.73
2017-08-01T14:45:38.696Z,6.60
2017-08-01T14:48:08.252Z,8.87
2017-08-01T14:50:35.807Z,9.53
2017-08-01T14:53:03.688Z,12.73
2017-08-01T14:55:31.287Z,20.10
2017-08-01T14:57:58.923Z,8.27
2017-08-01T15:00:26.536Z,9.90
2017-08-01T15:02:54.139Z,11.03
2017-08-01T15:05:22.190Z,7.20
2017-08-01T15:07:49.768Z,8.90
2017-08-01T15:10:17.364Z,10.43
2017-08-01T15:12:45.093Z,6.20
2017-08-01T15:15:12.732Z,13.30
2017-08-01T15:17:40.672Z,8.30
2017-08-01T15:20:09.028Z,13.60
2017-08-01T15:22:36.593Z,13.03
2017-08-01T15:25:04.204Z,7.27
2017-08-01T15:27:31.814Z,17.53
2017-08-01T15:29:59.830Z,8.60
2017-08-01T15:32:27.420Z,10.97
2017-08-01T15:34:54.991Z,9.70
2017-08-01T15:37:22.609Z,10.37
2017-08-01T15:39:50.210Z,11.40
2017-08-01T15:42:18.138Z,9.23
2017-08-01T15:44:45.759Z,9.40
2017-08-01T15:47:13.316Z,7.37
2017-08-01T15:49:40.962Z,11.90
2017-08-01T15:52:08.569Z,8.93
2017-08-01T15:54:36.600Z,9.73
2017-08-01T15:57:04.177Z,7.73
2017-08-01T15:59:31.773Z,13.27
2017-08-01T16:01:59.398Z,9.33
2017-08-01T16:04:27.738Z,9.80
2017-08-01T16:06:55.763Z,6.80
2017-08-01T16:09:24.155Z,16.17
2017-08-01T16:11:51.737Z,10.33
2017-08-01T16:14:19.376Z,7.83
2017-08-01T16:16:46.970Z,7.80
2017-08-01T16:19:14.871Z,11.50
2017-08-01T16:21:42.433Z,10.23
2017-08-01T16:24:10.042Z,7.57
2017-08-01T16:26:37.666Z,19.53
2017-08-01T16:29:05.995Z,11.90
2017-08-01T16:31:33.991Z,9.33
2017-08-01T16:34:01.599Z,15.37
2017-08-01T16:36:29.157Z,11.80
2017-08-01T16:38:56.787Z,10.73
2017-08-01T16:41:24.397Z,11.00
2017-08-01T16:43:52.337Z,7.80
2017-08-01T16:46:20.660Z,16.50
2017-08-01T16:48:48.287Z,16.10
2017-08-01T16:51:15.966Z,12.87
2017-08-01T16:53:43.735Z,10.10
2017-08-01T16:56:11.886Z,9.77
2017-08-01T16:58:39.466Z,14.67
2017-08-01T17:01:07.012Z,8.80
2017-08-01T17:03:34.635Z,20.30
2017-08-01T17:06:02.235Z,9.90
2017-08-01T17:08:31.559Z,9.13
2017-08-01T17:10:59.155Z,9.53
2017-08-01T17:13:26.861Z,8.73
2017-08-01T17:15:54.442Z,9.83
2017-08-01T17:18:23.083Z,14.07
2017-08-01T17:20:51.949Z,12.17
2017-08-01T17:23:19.530Z,11.70
2017-08-01T17:25:47.134Z,9.60
2017-08-01T17:28:14.749Z,12.73
2017-08-01T17:30:43.104Z,11.30
2017-08-01T17:33:11.098Z,17.07
2017-08-01T17:35:38.785Z,11.83
2017-08-01T17:38:06.361Z,13.87
2017-08-01T17:40:33.998Z,13.10
2017-08-01T17:43:01.569Z,24.07
2017-08-01T17:45:29.605Z,11.53
2017-08-01T17:47:57.954Z,6.80
2017-08-01T17:50:25.525Z,11.70
2017-08-01T17:52:53.132Z,9.50
2017-08-01T17:55:20.702Z,11.37
2017-08-01T17:57:48.729Z,18.83
2017-08-01T18:00:16.534Z,10.43
2017-08-01T18:02:44.095Z,12.40
2017-08-01T18:05:11.804Z,6.63
2017-08-01T18:07:39.437Z,11.60
2017-08-01T18:10:07.360Z,16.57
2017-08-01T18:12:35.678Z,14.03
2017-08-01T18:15:03.253Z,0.87
2017-08-01T18:17:30.915Z,0.60
2017-08-01T18:19:58.571Z,0.70
2017-08-01T18:22:26.686Z,0.60
2017-08-01T18:24:56.351Z,0.60
2017-08-01T18:27:23.944Z,0.60
2017-08-01T18:29:51.642Z,0.60
2017-08-01T18:32:19.985Z,0.60
2017-08-01T18:34:48.058Z,0.60
2017-08-01T18:37:15.640Z,0.90
2017-08-01T18:39:43.270Z,0.60
2017-08-01T18:42:10.905Z,0.60
2017-08-01T18:44:38.481Z,9.80
2017-08-01T18:47:06.365Z,0.60
2017-08-01T18:49:33.924Z,0.60
2017-08-01T18:52:01.487Z,0.60
2017-08-01T18:54:29.183Z,1.17
2017-08-01T18:56:56.746Z,0.60
2017-08-01T18:59:25.693Z,0.60
2017-08-01T19:01:53.299Z,0.60
2017-08-01T19:04:20.879Z,0.60
2017-08-01T19:06:48.500Z,0.60
2017-08-01T19:12:00.934Z,0.60
2017-08-01T19:14:28.620Z,1.37
2017-08-01T19:16:56.212Z,0.60
2017-08-01T19:19:23.866Z,0.60
2017-08-01T19:21:51.469Z,0.60
2017-08-01T19:24:20.092Z,0.60
2017-08-01T19:26:47.660Z,0.60
2017-08-01T19:29:15.296Z,0.60
2017-08-01T19:31:43.905Z,0.60
2017-08-01T19:34:11.474Z,0.60
2017-08-01T19:36:39.473Z,0.60
2017-08-01T19:39:07.066Z,0.60
2017-08-01T19:41:34.705Z,0.60
2017-08-01T19:44:02.389Z,0.60
2017-08-01T19:46:30.132Z,0.60
2017-08-01T19:48:58.868Z,0.60
2017-08-01T19:51:26.455Z,0.60
2017-08-01T19:53:54.049Z,0.60
2017-08-01T19:56:21.796Z,0.60
2017-08-01T19:58:50.163Z,0.60
2017-08-01T20:01:18.060Z,0.60
2017-08-01T20:03:46.580Z,0.60
2017-08-01T20:06:14.977Z,0.60
2017-08-01T20:08:42.623Z,0.60
2017-08-01T20:11:11.065Z,0.60
2017-08-01T20:13:38.981Z,0.60
2017-08-01T20:16:06.683Z,0.60
2017-08-01T20:18:34.252Z,0.60
2017-08-01T20:21:02.674Z,0.60
2017-08-01T20:23:30.274Z,0.60
2017-08-01T20:25:58.235Z,0.60
2017-08-01T20:28:27.681Z,0.60
2017-08-01T20:30:56.545Z,0.60
2017-08-01T20:33:24.193Z,0.60
2017-08-01T20:35:51.770Z,0.60
2017-08-01T20:38:20.577Z,0.60
2017-08-01T20:40:48.267Z,1.40
2017-08-01T20:43:16.658Z,0.60
2017-08-01T20:45:44.360Z,0.60
2017-08-01T20:48:11.969Z,0.60
2017-08-01T20:50:40.475Z,0.60
2017-08-01T20:53:08.160Z,0.60
2017-08-01T20:55:35.803Z,0.60
2017-08-01T20:58:03.421Z,0.60
2017-08-01T21:00:31.020Z,1.00
2017-08-01T21:02:59.145Z,0.60
2017-08-01T21:05:26.732Z,0.60
2017-08-01T21:07:54.313Z,0.60
2017-08-01T21:10:21.932Z,0.60
2017-08-01T21:12:49.542Z,0.60
2017-08-01T21:15:17.518Z,0.60
2017-08-01T21:17:51.486Z,0.60
2017-08-01T21:20:28.352Z,0.60
2017-08-01T21:23:07.807Z,0.60
2017-08-01T21:25:35.858Z,0.60
2017-08-01T21:28:03.531Z,0.60
2017-08-01T21:30:31.113Z,0.60
2017-08-01T21:32:58.730Z,0.60
2017-08-01T21:35:26.447Z,0.60
2017-08-01T21:37:58.110Z,0.60
2017-08-01T21:43:09.375Z,0.60
2017-08-01T21:45:36.989Z,0.60
2017-08-01T21:48:04.615Z,0.60
2017-08-01T21:50:32.519Z,0.60
2017-08-01T21:53:00.942Z,0.60
2017-08-01T21:55:29.061Z,0.60
2017-08-01T21:57:57.394Z,0.60
2017-08-01T22:00:24.993Z,0.60
2017-08-01T22:02:55.144Z,0.60
2017-08-01T22:05:23.842Z,0.60
2017-08-01T22:07:51.782Z,0.60
2017-08-01T22:10:20.180Z,0.60
2017-08-01T22:12:47.858Z,0.60
2017-08-01T22:15:15.504Z,0.60
2017-08-01T22:17:43.098Z,0.60
2017-08-01T22:20:11.096Z,0.60
2017-08-01T22:22:38.734Z,0.60
2017-08-01T22:25:06.327Z,0.60
2017-08-01T22:27:33.928Z,0.60
2017-08-01T22:30:01.515Z,0.60
2017-08-01T22:32:29.397Z,0.60
2017-08-01T22:34:59.883Z,0.60
2017-08-01T22:37:27.438Z,0.60
2017-08-01T22:39:55.036Z,0.60
2017-08-01T22:42:22.622Z,0.60
2017-08-01T22:44:51.310Z,0.60
2017-08-01T22:47:18.904Z,0.60
2017-08-01T22:49:46.457Z,0.60
2017-08-01T22:52:14.109Z,0.60
2017-08-01T22:54:42.432Z,0.60
2017-08-01T22:57:10.315Z,0.60
2017-08-01T22:59:37.879Z,0.60
2017-08-01T23:02:06.224Z,0.60
2017-08-01T23:04:33.844Z,0.60
2017-08-01T23:07:01.397Z,0.60
2017-08-01T23:09:29.312Z,0.60
2017-08-01T23:11:56.901Z,0.60
2017-08-01T23:14:24.500Z,0.60
2017-08-01T23:16:52.076Z,0.60
2017-08-01T23:19:19.648Z,0.60
2017-08-01T23:21:47.730Z,0.60
2017-08-01T23:24:15.307Z,0.60
2017-08-01T23:26:42.865Z,0.60
2017-08-01T23:29:10.483Z,0.60
2017-08-01T23:31:38.051Z,0.60
2017-08-01T23:34:06.000Z,0.60
2017-08-01T23:36:33.569Z,0.60
2017-08-01T23:39:01.195Z,0.60
2017-08-01T23:41:28.812Z,0.60
2017-08-01T23:43:56.415Z,0.60
2017-08-01T23:46:24.456Z,0.60
2017-08-01T23:48:52.016Z,0.60
2017-08-01T23:51:19.581Z,0.60
2017-08-01T23:53:47.188Z,0.60
2017-08-01T23:56:14.768Z,0.60
2017-08-01T23:58:42.643Z,0.60
